createdAt,value
2019-01-18T00:04:25.342Z,11.38
2019-01-18T00:09:33.221Z,11.33
2019-01-18T00:14:40.917Z,10.93
2019-01-18T00:19:48.635Z,11.56
2019-01-18T00:24:56.356Z,11.67
2019-01-18T00:30:04.134Z,11.34
2019-01-18T00:35:11.873Z,11.39
2019-01-18T00:40:19.766Z,10.71
2019-01-18T00:45:27.426Z,10.42
2019-01-18T00:50:35.177Z,14.38
2019-01-18T00:55:42.887Z,11.62
2019-01-18T01:00:50.607Z,11.12
2019-01-18T01:05:58.272Z,10.41
2019-01-18T01:11:06.066Z,15.88
2019-01-18T01:16:13.812Z,11.59
2019-01-18T01:21:21.657Z,11.55
2019-01-18T01:26:29.373Z,11.31
2019-01-18T01:31:37.104Z,11.68
2019-01-18T01:36:44.807Z,11.43
2019-01-18T01:41:52.670Z,10.85
2019-01-18T01:47:00.475Z,10.35
2019-01-18T01:52:08.218Z,11.08
2019-01-18T01:57:15.910Z,15.84
2019-01-18T02:02:23.669Z,11.53
2019-01-18T02:07:31.295Z,10.29
2019-01-18T02:12:39.134Z,10.39
2019-01-18T02:17:46.822Z,11.18
2019-01-18T02:22:54.615Z,11.40
2019-01-18T02:28:02.336Z,11.49
2019-01-18T02:33:10.046Z,11.64
2019-01-18T02:38:17.774Z,11.70
2019-01-18T02:43:25.651Z,11.09
2019-01-18T02:48:33.354Z,11.10
2019-01-18T02:53:41.127Z,16.16
2019-01-18T02:58:48.855Z,15.98
2019-01-18T03:03:56.630Z,10.35
2019-01-18T03:09:04.346Z,8.58
2019-01-18T03:14:12.171Z,9.85
2019-01-18T03:19:19.929Z,8.93
2019-01-18T03:24:27.569Z,9.17
2019-01-18T03:29:35.303Z,9.45
2019-01-18T03:34:43.142Z,7.86
2019-01-18T03:39:50.875Z,9.35
2019-01-18T03:44:58.664Z,9.89
2019-01-18T03:50:06.390Z,10.04
2019-01-18T03:55:14.208Z,10.41
2019-01-18T04:00:26.374Z,10.44
2019-01-18T04:05:29.085Z,10.92
2019-01-18T04:10:36.774Z,10.98
2019-01-18T04:15:44.646Z,10.80
2019-01-18T04:20:52.357Z,10.48
2019-01-18T04:26:00.194Z,10.51
2019-01-18T04:31:07.905Z,19.18
2019-01-18T04:36:15.593Z,20.21
2019-01-18T04:41:23.262Z,20.62
2019-01-18T04:46:31.049Z,11.67
2019-01-18T04:51:38.734Z,19.16
2019-01-18T04:56:46.468Z,11.62
2019-01-18T05:01:54.174Z,21.02
2019-01-18T05:07:01.989Z,21.30
2019-01-18T05:12:09.657Z,12.06
2019-01-18T05:17:17.457Z,11.42
2019-01-18T05:22:25.177Z,12.20
2019-01-18T05:27:33.067Z,13.09
2019-01-18T05:32:40.764Z,13.12
2019-01-18T05:37:48.562Z,26.46
2019-01-18T05:42:56.215Z,27.09
2019-01-18T05:48:04.059Z,17.00
2019-01-18T05:53:11.756Z,16.89
2019-01-18T05:58:19.642Z,17.19
2019-01-18T06:03:27.332Z,19.72
2019-01-18T06:08:35.144Z,21.38
2019-01-18T06:13:42.816Z,25.27
2019-01-18T06:18:50.546Z,24.90
2019-01-18T06:23:58.203Z,24.22
2019-01-18T06:29:05.972Z,22.20
2019-01-18T06:34:13.691Z,21.92
2019-01-18T06:39:21.478Z,20.06
2019-01-18T06:44:29.159Z,19.64
2019-01-18T06:49:36.994Z,20.04
2019-01-18T06:54:44.695Z,20.43
2019-01-18T06:59:52.579Z,20.89
2019-01-18T07:05:00.318Z,23.53
2019-01-18T07:10:08.078Z,28.99
2019-01-18T07:15:15.839Z,20.24
2019-01-18T07:20:23.546Z,20.75
2019-01-18T07:25:31.214Z,28.79
2019-01-18T07:30:39.101Z,18.75
2019-01-18T07:35:46.803Z,18.39
2019-01-18T07:40:54.708Z,18.04
2019-01-18T07:46:02.414Z,17.65
2019-01-18T07:51:10.185Z,25.95
2019-01-18T07:56:17.928Z,25.93
2019-01-18T08:01:25.862Z,18.51
2019-01-18T08:06:33.612Z,17.81
2019-01-18T08:11:41.300Z,18.07
2019-01-18T08:16:49.055Z,17.25
2019-01-18T08:21:56.870Z,17.18
2019-01-18T08:27:04.549Z,17.36
2019-01-18T08:32:12.300Z,17.45
2019-01-18T08:37:19.958Z,17.33
2019-01-18T08:42:27.703Z,17.50
2019-01-18T08:47:35.400Z,16.56
2019-01-18T08:52:43.264Z,17.11
2019-01-18T08:57:50.908Z,17.21
2019-01-18T09:02:58.602Z,16.87
2019-01-18T09:08:06.792Z,23.81
2019-01-18T09:13:14.547Z,23.90
2019-01-18T09:18:22.246Z,17.32
2019-01-18T09:23:30.089Z,17.18
2019-01-18T09:28:37.887Z,23.10
2019-01-18T09:33:45.641Z,23.85
2019-01-18T09:38:54.549Z,17.96
2019-01-18T09:44:02.320Z,24.99
2019-01-18T09:49:10.039Z,19.04
2019-01-18T09:54:17.774Z,18.90
2019-01-18T09:59:25.440Z,26.98
2019-01-18T10:04:33.302Z,20.92
2019-01-18T10:09:40.999Z,20.58
2019-01-18T10:14:48.732Z,21.13
2019-01-18T10:19:56.417Z,30.01
2019-01-18T10:25:04.144Z,34.33
2019-01-18T10:30:11.893Z,22.91
2019-01-18T10:35:19.635Z,23.79
2019-01-18T10:40:27.288Z,23.53
2019-01-18T10:45:35.137Z,33.60
2019-01-18T10:50:42.803Z,31.85
2019-01-18T10:55:50.744Z,23.59
2019-01-18T11:00:58.437Z,31.00
2019-01-18T11:06:06.177Z,31.67
2019-01-18T11:11:13.898Z,32.76
2019-01-18T11:16:21.621Z,26.22
2019-01-18T11:21:29.278Z,25.58
2019-01-18T11:26:37.089Z,25.72
2019-01-18T11:31:44.827Z,26.39
2019-01-18T11:36:56.437Z,34.46
2019-01-18T11:41:59.905Z,35.23
2019-01-18T11:47:07.718Z,25.81
2019-01-18T11:52:15.430Z,24.46
2019-01-18T11:57:23.348Z,24.69
2019-01-18T12:02:31.014Z,25.09
2019-01-18T12:07:38.834Z,35.31
2019-01-18T12:12:46.535Z,27.77
2019-01-18T12:17:54.381Z,37.26
2019-01-18T12:23:02.086Z,28.34
2019-01-18T12:28:09.922Z,27.05
2019-01-18T12:33:17.597Z,25.89
2019-01-18T12:38:25.357Z,33.72
2019-01-18T12:43:33.066Z,24.87
2019-01-18T12:48:40.821Z,24.22
2019-01-18T12:53:48.524Z,23.54
2019-01-18T12:58:56.712Z,22.79
2019-01-18T13:04:03.476Z,23.77
2019-01-18T13:09:11.266Z,20.99
2019-01-18T13:14:18.967Z,24.02
2019-01-18T13:19:26.766Z,17.57
2019-01-18T13:24:34.470Z,15.43
2019-01-18T13:29:42.182Z,15.42
2019-01-18T13:34:49.882Z,14.50
2019-01-18T13:39:57.592Z,14.72
2019-01-18T13:45:05.300Z,14.37
2019-01-18T13:50:13.047Z,14.73
2019-01-18T13:55:20.833Z,15.19
2019-01-18T14:00:28.659Z,16.10
2019-01-18T14:05:36.484Z,16.98
2019-01-18T14:10:44.266Z,16.82
2019-01-18T14:15:51.970Z,18.18
2019-01-18T14:20:59.858Z,15.92
2019-01-18T14:26:07.559Z,15.79
2019-01-18T14:31:15.257Z,19.57
2019-01-18T14:36:22.983Z,20.95
2019-01-18T14:42:42.998Z,21.19
2019-01-18T14:47:40.584Z,21.32
2019-01-18T14:52:48.362Z,22.40
2019-01-18T14:57:56.113Z,18.22
2019-01-18T15:03:04.656Z,19.59
2019-01-18T15:08:11.064Z,18.45
2019-01-18T15:13:18.999Z,18.52
2019-01-18T15:18:26.659Z,18.97
2019-01-18T15:23:34.437Z,19.79
2019-01-18T15:28:42.251Z,20.64
2019-01-18T15:33:49.968Z,20.65
2019-01-18T15:38:57.639Z,30.18
2019-01-18T15:44:05.323Z,22.41
2019-01-18T15:49:13.007Z,21.53
2019-01-18T15:54:20.730Z,28.04
2019-01-18T15:59:28.411Z,24.99
2019-01-18T16:04:36.144Z,20.66
2019-01-18T16:09:43.835Z,16.48
2019-01-18T16:14:51.645Z,15.40
2019-01-18T16:19:59.331Z,15.05
2019-01-18T16:25:07.197Z,14.81
2019-01-18T16:30:14.910Z,13.68
2019-01-18T16:35:22.697Z,13.23
2019-01-18T16:40:30.344Z,13.43
2019-01-18T16:45:38.164Z,14.47
2019-01-18T16:50:45.834Z,12.18
2019-01-18T16:55:53.536Z,12.03
2019-01-18T17:01:01.277Z,12.37
2019-01-18T17:06:09.087Z,12.55
2019-01-18T17:11:16.918Z,12.81
2019-01-18T17:16:24.721Z,12.70
2019-01-18T17:21:32.977Z,12.90
2019-01-18T17:26:40.731Z,15.29
2019-01-18T17:31:48.430Z,13.95
2019-01-18T17:36:56.238Z,13.02
2019-01-18T17:42:03.937Z,15.65
2019-01-18T17:47:11.662Z,15.39
2019-01-18T17:52:19.340Z,13.34
2019-01-18T17:57:27.140Z,15.10
2019-01-18T18:02:34.902Z,16.26
2019-01-18T18:07:42.837Z,13.38
2019-01-18T18:12:50.487Z,12.71
2019-01-18T18:17:58.225Z,15.28
2019-01-18T18:23:05.943Z,13.14
2019-01-18T18:28:13.658Z,15.99
2019-01-18T18:33:21.391Z,13.45
2019-01-18T18:38:29.162Z,13.19
2019-01-18T18:43:36.838Z,13.16
2019-01-18T18:48:44.680Z,12.90
2019-01-18T18:53:52.392Z,13.15
2019-01-18T18:59:00.145Z,13.87
2019-01-18T19:04:07.815Z,24.29
2019-01-18T19:09:15.577Z,12.71
2019-01-18T19:14:23.342Z,13.76
2019-01-18T19:19:31.090Z,13.51
2019-01-18T19:24:38.803Z,11.84
2019-01-18T19:29:46.548Z,10.96
2019-01-18T19:34:54.197Z,10.90
2019-01-18T19:40:02.080Z,12.91
2019-01-18T19:45:09.713Z,10.82
2019-01-18T19:50:17.534Z,10.97
2019-01-18T19:55:25.332Z,10.85
2019-01-18T20:00:33.129Z,10.67
2019-01-18T20:05:40.833Z,11.07
2019-01-18T20:10:48.590Z,11.13
2019-01-18T20:15:56.238Z,13.06
2019-01-18T20:21:04.008Z,11.83
2019-01-18T20:26:11.726Z,11.40
2019-01-18T20:31:19.425Z,11.37
2019-01-18T20:36:27.102Z,13.35
2019-01-18T20:41:35.014Z,10.95
2019-01-18T20:46:42.756Z,10.71
2019-01-18T20:51:50.580Z,10.59
2019-01-18T20:56:58.237Z,10.75
2019-01-18T21:02:06.157Z,11.02
2019-01-18T21:07:13.881Z,11.00
2019-01-18T21:12:21.640Z,11.32
2019-01-18T21:17:29.371Z,11.02
2019-01-18T21:22:37.123Z,12.79
2019-01-18T21:27:44.853Z,12.78
2019-01-18T21:32:52.626Z,11.25
2019-01-18T21:38:00.461Z,12.64
2019-01-18T21:43:08.907Z,10.84
2019-01-18T21:48:16.589Z,10.83
2019-01-18T21:53:24.379Z,11.04
2019-01-18T21:58:32.069Z,10.89
2019-01-18T22:03:39.944Z,11.23
2019-01-18T22:08:47.646Z,11.34
2019-01-18T22:13:55.383Z,11.80
2019-01-18T22:19:03.140Z,11.12
2019-01-18T22:24:10.936Z,13.22
2019-01-18T22:29:18.656Z,11.78
2019-01-18T22:34:26.547Z,11.87
2019-01-18T22:39:34.277Z,11.21
2019-01-18T22:44:42.028Z,13.72
2019-01-18T22:49:49.732Z,11.29
2019-01-18T22:54:57.470Z,14.06
2019-01-18T23:00:05.162Z,14.01
2019-01-18T23:05:12.959Z,13.91
2019-01-18T23:10:20.644Z,14.16
2019-01-18T23:15:28.425Z,11.57
2019-01-18T23:20:36.153Z,10.85
2019-01-18T23:25:44.018Z,10.87
2019-01-18T23:30:51.676Z,11.27
2019-01-18T23:35:59.432Z,10.54
2019-01-18T23:41:07.208Z,11.64
2019-01-18T23:46:15.073Z,14.06
2019-01-18T23:51:22.761Z,10.89
2019-01-18T23:56:30.538Z,11.16
